Time;durP1;ratioP1;P1;durP2;ratioP2;P2;SDS_P1;SDS_P2;PMS_P1;PMS_P2;Temp;Humidity;BMP_temperature;BMP_pressure;BME280_temperature;BME280_humidity;BME280_pressure;Samples;Min_cycle;Max_cycle;Signal;HPM_P1;HPM_P2
2022/10/01 09:06:24;;;;;;;10.60;8.25;;;;;;;23.25;42.51;99693.75;4982741;27;1448174;-87
2022/10/01 09:08:58;;;;;;;9.52;7.18;;;;;;;22.87;43.33;99696.59;5005626;28;96807;-87
2022/10/01 09:11:28;;;;;;;7.82;7.03;;;;;;;21.95;45.04;99689.09;5027863;27;97960;-89
2022/10/01 09:14:15;;;;;;;9.60;7.35;;;;;;;21.96;45.02;99702.28;5012397;28;101461;-88
2022/10/01 09:17:06;;;;;;;12.07;7.35;;;;;;;22.57;43.88;99702.03;5013964;28;97288;-88
2022/10/01 09:19:56;;;;;;;11.00;7.10;;;;;;;21.75;45.13;99697.09;5015428;28;97196;-89
2022/10/01 09:22:35;;;;;;;11.43;7.55;;;;;;;20.58;47.27;99695.81;5008019;28;102216;-89
2022/10/01 09:25:22;;;;;;;8.10;7.30;;;;;;;20.18;48.38;99701.81;5023058;28;97045;-89
2022/10/01 09:27:49;;;;;;;10.32;8.50;;;;;;;19.79;49.83;99677.53;5009920;28;96771;-88
2022/10/01 09:30:20;;;;;;;9.63;7.30;;;;;;;19.31;51.26;99682.31;5012518;28;96659;-88
2022/10/01 09:32:51;;;;;;;10.57;7.13;;;;;;;18.97;52.03;99679.72;5003348;28;100117;-89
2022/10/01 09:35:32;;;;;;;7.70;6.88;;;;;;;18.65;52.09;99692.84;5008295;28;97892;-88
2022/10/01 09:38:23;;;;;;;12.57;7.93;;;;;;;18.22;53.30;99691.63;5013456;28;97075;-88
2022/10/01 09:40:54;;;;;;;13.25;10.35;;;;;;;17.89;54.31;99687.06;5019722;28;97220;-88
2022/10/01 09:43:32;;;;;;;10.38;8.15;;;;;;;17.77;54.48;99683.47;5013021;27;98154;-88
2022/10/01 09:45:58;;;;;;;10.98;8.02;;;;;;;17.57;55.24;99646.91;4993669;28;101680;-87
2022/10/01 09:48:37;;;;;;;11.27;7.45;;;;;;;17.74;55.56;99670.41;4995997;28;97027;-87
2022/10/01 09:51:25;;;;;;;8.02;7.22;;;;;;;17.69;56.17;99667.28;5011403;28;96704;-87
2022/10/01 09:53:58;;;;;;;10.45;7.38;;;;;;;17.77;55.69;99674.66;5008743;28;100438;-87
2022/10/01 09:56:28;;;;;;;10.02;6.68;;;;;;;17.51;56.50;99642.94;5004042;28;101516;-85
2022/10/01 09:58:59;;;;;;;11.98;7.07;;;;;;;17.42;57.10;99662.16;5010482;28;96722;-86
2022/10/01 10:01:45;;;;;;;8.95;6.82;;;;;;;17.40;57.13;99659.63;4998837;28;97301;-87
2022/10/01 10:04:11;;;;;;;7.95;6.32;;;;;;;17.42;57.08;99657.72;5012765;28;98580;-88
2022/10/01 10:10:34;;;;;;;10.75;6.75;;;;;;;17.52;56.98;99651.75;5038617;27;96658;-87
2022/10/01 10:13:01;;;;;;;7.90;6.30;;;;;;;17.34;57.15;99625.59;5011098;27;97430;-87
2022/10/01 10:15:30;;;;;;;10.15;6.10;;;;;;;17.42;57.63;99635.63;5012162;27;100741;-88
2022/10/01 10:18:05;;;;;;;8.20;6.15;;;;;;;17.35;57.77;99640.53;4975265;27;99883;-88
2022/10/01 10:20:45;;;;;;;9.98;6.90;;;;;;;17.34;57.78;99636.22;4990393;27;97452;-88
2022/10/01 10:23:19;;;;;;;7.57;6.15;;;;;;;17.38;57.97;99632.38;4998729;28;96772;-88
2022/10/01 10:26:19;;;;;;;8.85;6.45;;;;;;;17.40;58.05;99633.09;5001504;28;98189;-88
2022/10/01 10:28:45;;;;;;;9.88;7.13;;;;;;;17.39;58.17;99620.81;4973821;28;100347;-87
2022/10/01 10:31:17;;;;;;;10.10;6.65;;;;;;;17.75;57.29;99627.00;4993198;28;97147;-88
2022/10/01 10:34:04;;;;;;;8.30;5.53;;;;;;;17.74;58.04;99627.09;4988792;28;97105;-91
2022/10/01 10:36:32;;;;;;;6.32;5.38;;;;;;;17.77;57.11;99617.13;4986616;28;101503;-91
2022/10/01 10:38:58;;;;;;;7.53;5.43;;;;;;;17.84;56.01;99596.28;5021949;28;98519;-90
2022/10/01 10:41:25;;;;;;;7.55;5.00;;;;;;;18.04;55.84;99581.50;4984195;27;96999;-91
2022/10/01 10:43:58;;;;;;;5.72;4.75;;;;;;;18.19;55.46;99585.63;4999950;28;97164;-92
2022/10/01 10:46:32;;;;;;;6.80;5.30;;;;;;;18.34;55.09;99591.56;4998143;28;101344;-89
2022/10/01 10:49:03;;;;;;;5.32;4.38;;;;;;;18.50;55.10;99600.03;5010738;28;98636;-90
2022/10/01 10:51:29;;;;;;;;;;;;;;;18.45;55.14;99596.88;5000492;28;98015;-89
2022/10/01 10:53:59;;;;;;;7.18;4.70;;;;;;;18.39;54.86;99588.56;5003002;28;97231;-88
2022/10/01 10:56:25;;;;;;;7.97;4.80;;;;;;;18.43;54.70;99590.84;4997886;28;100801;-88
2022/10/01 10:58:50;;;;;;;5.57;4.72;;;;;;;18.43;54.79;99577.56;5003594;28;97931;-88
2022/10/01 11:01:24;;;;;;;5.97;4.82;;;;;;;18.46;53.32;99581.78;5015186;28;97192;-88
2022/10/01 11:03:54;;;;;;;10.75;5.00;;;;;;;18.38;53.60;99568.25;5002047;28;96834;-88
2022/10/01 11:06:20;;;;;;;9.27;4.97;;;;;;;18.24;54.22;99572.84;4993494;28;100219;-88
2022/10/01 11:08:56;;;;;;;5.18;4.28;;;;;;;18.12;54.14;99573.78;4975325;28;101153;-89
2022/10/01 11:11:40;;;;;;;8.27;5.15;;;;;;;17.92;55.31;99571.81;4988191;28;96732;-88
2022/10/01 11:14:15;;;;;;;9.07;5.65;;;;;;;17.78;55.49;99538.38;5019465;27;96958;-89
2022/10/01 11:17:11;;;;;;;8.52;4.38;;;;;;;17.58;55.32;99545.16;5027391;27;98484;-87
2022/10/01 11:20:10;;;;;;;5.47;3.85;;;;;;;17.63;54.42;99545.66;5002087;28;101416;-88
2022/10/01 11:22:51;;;;;;;4.07;3.38;;;;;;;17.43;55.58;99547.97;5007847;28;96815;-86
2022/10/01 11:25:46;;;;;;;9.27;4.13;;;;;;;17.38;55.02;99542.16;5017183;28;96971;-86
2022/10/01 11:28:34;;;;;;;3.63;2.47;;;;;;;17.36;55.52;99544.09;5018239;28;97928;-85
2022/10/01 11:31:11;;;;;;;4.20;2.47;;;;;;;17.37;55.14;99550.25;5009339;28;100363;-85
2022/10/01 11:33:43;;;;;;;3.30;2.30;;;;;;;17.38;54.22;99546.63;5019237;28;96801;-87
2022/10/01 11:36:28;;;;;;;2.78;1.80;;;;;;;17.41;53.79;99547.25;5016447;28;96760;-86
2022/10/01 11:39:01;;;;;;;4.65;2.25;;;;;;;17.46;52.99;99543.41;4996750;28;98189;-89
2022/10/01 11:41:37;;;;;;;4.15;2.13;;;;;;;17.52;53.00;99540.31;4998174;28;97400;-84
2022/10/01 11:44:17;;;;;;;5.18;1.83;;;;;;;17.62;51.97;99535.97;5010158;28;96737;-81
2022/10/01 11:46:54;;;;;;;5.25;2.05;;;;;;;17.75;52.13;99533.25;4997141;28;97125;-78
2022/10/01 11:49:40;;;;;;;4.97;2.45;;;;;;;17.72;51.78;99518.41;4996617;28;98451;-82
2022/10/01 11:52:18;;;;;;;4.93;2.20;;;;;;;17.84;51.04;99536.06;5016321;28;98593;-82
2022/10/01 12:00:55;;;;;;;2.75;2.20;;;;;;;17.98;51.49;99524.41;4999061;28;100076;-83
2022/10/01 12:03:22;;;;;;;2.97;2.03;;;;;;;17.97;51.42;99514.72;4991080;28;100950;-92
2022/10/01 12:05:48;;;;;;;2.13;1.85;;;;;;;18.04;50.56;99518.63;4992107;27;99607;-84
2022/10/01 12:08:19;;;;;;;4.97;2.60;;;;;;;17.96;50.88;99513.06;4976925;28;98294;-83
2022/10/01 12:10:46;;;;;;;;;;;;;;;17.91;49.51;99522.34;5010247;28;98106;-83
2022/10/01 12:13:21;;;;;;;4.32;1.92;;;;;;;17.73;50.48;99504.16;4971642;27;101281;-81
2022/10/01 12:16:08;;;;;;;2.42;1.85;;;;;;;17.79;49.69;99517.00;4989389;28;97015;-84
2022/10/01 12:18:53;;;;;;;5.65;2.38;;;;;;;17.77;50.10;99510.94;5003676;28;97051;-85
2022/10/01 12:21:23;;;;;;;4.43;1.92;;;;;;;17.70;50.38;99504.41;5013657;28;98046;-81
2022/10/01 12:24:13;;;;;;;2.93;1.90;;;;;;;17.73;49.58;99501.50;4975752;28;101301;-82
2022/10/01 12:26:56;;;;;;;2.55;1.85;;;;;;;17.68;50.05;99494.88;5002183;28;96889;-83
2022/10/01 12:29:48;;;;;;;1.95;1.58;;;;;;;17.65;49.91;99496.78;4991500;28;97508;-85
2022/10/01 12:32:16;;;;;;;2.78;1.63;;;;;;;17.60;49.89;99485.69;5016387;28;99875;-84
2022/10/01 12:34:48;;;;;;;3.35;2.00;;;;;;;17.57;49.99;99467.34;4995420;28;101386;-84
2022/10/01 12:37:14;;;;;;;3.70;1.90;;;;;;;17.69;50.16;99476.19;5015167;28;97096;-91
2022/10/01 12:39:45;;;;;;;5.28;1.75;;;;;;;17.70;50.19;99485.81;5000105;28;97078;-92
2022/10/01 12:42:30;;;;;;;2.67;1.60;;;;;;;17.73;49.68;99469.66;4995255;28;99659;-90
2022/10/01 12:45:25;;;;;;;3.92;2.10;;;;;;;17.65;50.22;99464.94;4999346;28;98769;-84
2022/10/01 12:48:00;;;;;;;6.05;3.30;;;;;;;17.71;51.37;99463.63;4994937;28;97283;-85
2022/10/01 12:50:36;;;;;;;4.85;2.30;;;;;;;17.87;50.96;99461.50;4974042;28;96883;-88
2022/10/01 12:53:25;;;;;;;6.28;3.00;;;;;;;17.85;51.04;99454.63;4995064;28;101330;-86
2022/10/01 12:56:03;;;;;;;2.85;1.80;;;;;;;17.70;50.82;99418.63;4968164;28;101129;-85
2022/10/01 12:58:42;;;;;;;4.65;2.35;;;;;;;17.88;51.39;99444.59;5008361;28;96803;-86
2022/10/01 13:01:18;;;;;;;4.13;2.70;;;;;;;18.00;52.61;99461.38;4997730;28;97182;-86
2022/10/01 13:03:49;;;;;;;4.20;2.30;;;;;;;17.99;50.96;99451.75;5000985;28;96924;-85
2022/10/01 13:06:28;;;;;;;4.28;1.80;;;;;;;17.94;49.71;99447.75;4990144;27;99767;-84
2022/10/01 13:09:09;;;;;;;2.80;1.67;;;;;;;17.91;51.09;99456.81;5028529;27;97364;-84
2022/10/01 13:11:53;;;;;;;2.83;1.67;;;;;;;17.87;50.07;99453.53;4989273;28;97069;-85
2022/10/01 13:14:21;;;;;;;2.70;1.80;;;;;;;17.79;50.06;99440.03;4983074;28;100248;-85
2022/10/01 13:17:12;;;;;;;1.63;1.50;;;;;;;17.84;48.54;99445.81;4985269;28;101669;-78
2022/10/01 13:20:26;;;;;;;2.75;1.80;;;;;;;17.63;49.14;99440.34;5019739;28;96799;-89
2022/10/01 13:23:14;;;;;;;3.35;2.08;;;;;;;17.62;49.55;99445.75;4910253;28;97196;-94
2022/10/01 13:25:49;;;;;;;2.08;1.83;;;;;;;17.56;50.48;99438.28;4996220;27;100541;-88
2022/10/01 13:28:19;;;;;;;5.35;2.13;;;;;;;17.59;49.26;99441.53;5003176;27;101762;-89
2022/10/01 13:31:13;;;;;;;3.13;2.03;;;;;;;17.56;49.63;99435.63;4982559;27;98657;-91
2022/10/01 13:33:39;;;;;;;2.40;1.75;;;;;;;17.75;49.09;99437.72;5013892;28;98180;-96
2022/10/01 13:36:06;;;;;;;3.22;1.60;;;;;;;17.58;49.13;99423.94;4984031;27;101106;-95
2022/10/01 13:38:41;;;;;;;2.83;1.85;;;;;;;17.52;48.91;99427.06;4990430;27;101324;-89
2022/10/01 13:41:28;;;;;;;2.88;1.90;;;;;;;17.52;49.44;99442.13;4975512;27;97632;-92
2022/10/01 13:44:25;;;;;;;3.03;1.80;;;;;;;17.26;49.54;99407.00;5004567;27;96958;-96
2022/10/01 13:47:17;;;;;;;3.67;1.95;;;;;;;17.29;49.93;99434.13;4987558;28;100576;-94
2022/10/01 13:49:44;;;;;;;2.28;1.90;;;;;;;17.29;49.61;99422.66;4995854;28;100141;-96
2022/10/01 13:52:18;;;;;;;4.15;1.83;;;;;;;17.27;50.08;99417.47;4997134;27;97538;-95
2022/10/01 13:54:49;;;;;;;3.35;1.77;;;;;;;17.23;50.16;99417.84;5016662;28;97280;-93
2022/10/01 13:57:27;;;;;;;5.90;2.47;;;;;;;17.18;49.20;99416.34;4985947;28;100554;-86
2022/10/01 14:00:00;;;;;;;4.57;1.90;;;;;;;17.16;49.76;99412.13;5029351;27;98239;-87
2022/10/01 14:02:34;;;;;;;2.47;1.50;;;;;;;17.16;49.64;99405.03;5016294;27;97290;-91
2022/10/01 14:05:48;;;;;;;2.05;1.60;;;;;;;17.09;50.08;99403.78;4996502;28;96974;-86
2022/10/01 14:08:25;;;;;;;3.78;2.03;;;;;;;17.10;49.82;99401.97;5010366;27;98410;-86
2022/10/01 14:16:35;;;;;;;4.15;2.05;;;;;;;16.82;50.46;99382.03;5006577;28;97316;-89
2022/10/01 14:19:01;;;;;;;4.32;1.95;;;;;;;16.85;50.71;99387.94;4983725;28;99988;-87
2022/10/01 14:21:32;;;;;;;6.75;2.38;;;;;;;16.90;50.40;99388.44;4988071;28;101432;-87
2022/10/01 14:24:16;;;;;;;;;;;;;;;16.69;50.82;99377.59;4994845;28;96733;-86
2022/10/01 14:27:05;;;;;;;5.72;2.17;;;;;;;16.72;50.89;99381.81;5011436;28;96813;-87
2022/10/01 14:29:41;;;;;;;5.75;2.20;;;;;;;16.61;51.11;99371.16;5018859;28;100253;-89
2022/10/01 14:32:26;;;;;;;3.60;2.22;;;;;;;16.61;51.50;99373.81;5018477;28;98423;-88
2022/10/01 14:35:11;;;;;;;3.97;2.40;;;;;;;16.64;51.76;99363.84;4998051;28;97005;-86
2022/10/01 14:37:38;;;;;;;3.45;1.95;;;;;;;16.62;52.13;99368.41;4989216;28;96856;-87
2022/10/01 14:40:21;;;;;;;5.18;2.47;;;;;;;16.57;52.50;99370.56;4998674;28;100327;-85
2022/10/01 14:43:00;;;;;;;7.95;2.30;;;;;;;16.41;52.81;99348.81;4987299;28;100402;-91
2022/10/01 14:45:26;;;;;;;3.78;2.20;;;;;;;16.47;52.90;99375.69;4995560;28;97093;-93
2022/10/01 14:48:02;;;;;;;5.13;2.70;;;;;;;16.48;52.95;99364.13;4989644;28;96835;-92
2022/10/01 14:50:29;;;;;;;4.15;2.47;;;;;;;16.48;53.11;99381.81;5002055;28;98449;-90
2022/10/01 14:52:54;;;;;;;3.85;2.08;;;;;;;16.52;53.41;99386.81;4988267;27;100310;-87
2022/10/01 14:55:21;;;;;;;3.30;2.38;;;;;;;16.44;55.07;99412.16;4986152;28;97242;-90
2022/10/01 14:57:49;;;;;;;6.03;2.67;;;;;;;16.30;57.13;99415.78;4997902;28;97039;-91
2022/10/01 15:00:19;;;;;;;6.70;2.63;;;;;;;16.21;58.79;99425.25;5003982;28;98123;-90
2022/10/01 15:02:46;;;;;;;5.20;2.92;;;;;;;16.15;59.79;99423.03;4993418;28;101169;-90
2022/10/01 15:05:30;;;;;;;5.72;2.78;;;;;;;16.04;60.92;99434.38;4998807;28;97014;-90
2022/10/01 15:07:55;;;;;;;5.25;2.60;;;;;;;15.83;61.31;99398.84;4985178;28;98352;-90
2022/10/01 15:10:25;;;;;;;4.78;2.70;;;;;;;16.08;60.68;99427.06;4998893;27;98687;-91
2022/10/01 15:12:52;;;;;;;4.40;2.25;;;;;;;15.98;59.86;99433.97;4994964;28;97762;-89
2022/10/01 15:15:49;;;;;;;3.83;1.20;;;;;;;15.73;57.35;99418.94;4993852;28;98088;-90
2022/10/01 15:18:15;;;;;;;4.47;1.33;;;;;;;15.75;56.95;99425.84;5004253;28;97389;-89
2022/10/01 15:21:00;;;;;;;1.60;1.30;;;;;;;15.53;56.72;99402.66;4988956;28;101006;-91
2022/10/01 15:23:27;;;;;;;2.47;1.55;;;;;;;15.67;56.79;99422.84;4999372;28;100957;-89
2022/10/01 15:25:54;;;;;;;2.72;1.25;;;;;;;15.50;56.27;99420.50;5002872;28;97136;-91
2022/10/01 15:28:46;;;;;;;2.42;1.45;;;;;;;15.56;57.12;99431.53;4987911;28;96917;-91
2022/10/01 15:31:11;;;;;;;;;;;;;;;15.50;57.15;99431.94;5010989;28;101016;-88
2022/10/01 15:33:42;;;;;;;15.35;6.90;;;;;;;15.52;57.00;99422.09;4984599;28;99587;-89
2022/10/01 15:36:12;;;;;;;9.30;3.95;;;;;;;15.34;56.51;99396.94;5005366;28;97575;-87
2022/10/01 15:38:38;;;;;;;7.38;2.38;;;;;;;15.40;56.80;99429.06;5003239;28;97299;-88
2022/10/01 15:41:05;;;;;;;4.25;2.40;;;;;;;15.32;56.87;99427.91;4999919;28;101234;-90
2022/10/01 15:43:30;;;;;;;6.13;2.25;;;;;;;15.38;57.07;99432.78;5001642;28;100028;-90
2022/10/01 15:46:08;;;;;;;3.03;2.00;;;;;;;15.38;57.42;99423.03;5015711;28;97291;-89
2022/10/01 15:48:33;;;;;;;6.25;2.80;;;;;;;15.27;57.40;99408.84;5031730;28;96535;-89
2022/10/01 15:51:01;;;;;;;4.13;2.10;;;;;;;15.32;57.54;99420.81;5009732;28;97110;-89
2022/10/01 15:53:27;;;;;;;3.13;1.90;;;;;;;15.16;58.00;99415.72;4998293;28;101156;-89
2022/10/01 15:55:56;;;;;;;7.85;1.95;;;;;;;15.15;58.36;99418.47;5014085;28;96831;-90
2022/10/01 15:58:23;;;;;;;3.13;2.00;;;;;;;15.14;58.36;99401.75;4981572;28;96902;-87
2022/10/01 16:01:11;;;;;;;5.72;2.13;;;;;;;15.17;58.54;99409.47;4984327;28;101107;-89
2022/10/01 16:03:47;;;;;;;5.25;2.30;;;;;;;15.10;58.53;99400.28;4985055;28;100926;-89
2022/10/01 16:06:18;;;;;;;9.93;4.43;;;;;;;15.04;58.93;99405.97;5008431;28;97222;-76
2022/10/01 16:09:05;;;;;;;5.30;2.83;;;;;;;15.07;59.13;99405.78;4988761;28;97135;-78
2022/10/01 16:11:49;;;;;;;5.75;3.13;;;;;;;14.90;59.42;99391.03;5005933;28;97532;-79
2022/10/01 16:14:39;;;;;;;6.50;3.10;;;;;;;15.02;59.29;99392.00;4986146;28;101004;-81
2022/10/01 16:17:17;;;;;;;6.47;4.28;;;;;;;15.02;59.34;99410.50;4973019;27;97038;-80
2022/10/01 16:19:48;;;;;;;4.40;2.63;;;;;;;15.02;59.43;99393.81;5007742;28;97207;-80
2022/10/01 16:22:21;;;;;;;8.43;3.75;;;;;;;14.92;60.15;99405.00;4997027;28;101344;-76
2022/10/01 16:24:53;;;;;;;7.07;3.90;;;;;;;14.79;60.00;99375.06;4988884;28;101113;-78
2022/10/01 16:27:28;;;;;;;;;;;;;;;14.82;60.92;99400.44;5006125;28;97218;-78
2022/10/01 16:29:54;;;;;;;6.13;3.63;;;;;;;14.78;60.79;99402.44;5027692;28;96737;-77
2022/10/01 16:32:20;;;;;;;9.75;5.00;;;;;;;14.85;60.46;99398.41;4988693;28;97599;-75
2022/10/01 16:34:45;;;;;;;6.47;3.20;;;;;;;14.84;60.67;99402.03;4988055;28;97502;-78
2022/10/01 16:37:11;;;;;;;4.90;3.00;;;;;;;14.72;61.10;99402.84;5001289;28;96901;-75
2022/10/01 16:39:36;;;;;;;7.53;3.40;;;;;;;14.75;61.01;99402.63;4992637;28;97169;-78
2022/10/01 16:42:03;;;;;;;5.53;3.17;;;;;;;14.75;60.90;99404.41;4974256;28;100871;-75
2022/10/01 16:44:28;;;;;;;4.03;2.22;;;;;;;14.73;60.93;99408.97;4994593;28;101061;-81
2022/10/01 16:46:55;;;;;;;4.82;2.42;;;;;;;14.68;60.76;99403.97;4994249;28;97297;-77
2022/10/01 16:49:20;;;;;;;4.80;2.42;;;;;;;14.68;60.88;99398.69;4991756;28;97303;-77
2022/10/01 16:51:51;;;;;;;3.25;1.80;;;;;;;14.68;60.72;99403.97;4990643;28;100927;-76
2022/10/01 16:54:25;;;;;;;4.23;2.40;;;;;;;14.59;60.84;99386.91;4998616;28;101501;-79
2022/10/01 16:56:51;;;;;;;5.30;2.92;;;;;;;14.58;61.07;99387.03;4988010;28;97141;-76
2022/10/01 16:59:21;;;;;;;5.65;2.75;;;;;;;14.61;60.81;99398.25;4985925;28;96834;-75
2022/10/01 17:01:49;;;;;;;6.93;2.95;;;;;;;14.63;60.61;99380.50;4975713;28;101194;-75
2022/10/01 17:04:15;;;;;;;5.93;2.72;;;;;;;14.60;61.02;99395.69;4977286;28;101215;-76
2022/10/01 17:06:40;;;;;;;4.60;2.78;;;;;;;14.43;61.26;99383.56;4998244;28;97737;-76
2022/10/01 17:09:06;;;;;;;4.38;2.17;;;;;;;14.46;61.46;99404.50;4996340;28;96926;-77
2022/10/01 17:11:32;;;;;;;3.58;2.10;;;;;;;14.60;61.40;99411.53;4984845;28;101582;-79
2022/10/01 17:13:57;;;;;;;3.55;2.15;;;;;;;14.58;61.64;99406.38;4989721;28;101089;-77
2022/10/01 17:16:23;;;;;;;4.82;2.40;;;;;;;14.48;61.25;99399.94;5000488;28;97268;-76
2022/10/01 17:18:48;;;;;;;3.72;2.33;;;;;;;14.50;61.16;99396.25;5005743;28;97394;-77
2022/10/01 17:21:14;;;;;;;5.03;2.60;;;;;;;14.54;61.28;99406.66;4987549;28;101222;-76
2022/10/01 17:23:39;;;;;;;3.42;2.42;;;;;;;14.56;61.65;99418.81;4989093;28;97916;-77
2022/10/01 17:26:06;;;;;;;4.85;2.72;;;;;;;14.53;60.96;99411.09;4981480;28;97233;-76
2022/10/01 17:28:31;;;;;;;5.15;2.35;;;;;;;14.53;61.46;99428.75;4993711;28;96993;-80
2022/10/01 17:30:57;;;;;;;5.20;3.05;;;;;;;14.49;61.79;99415.69;5023939;28;97883;-78
2022/10/01 17:33:23;;;;;;;4.85;3.00;;;;;;;14.48;61.88;99413.16;4992409;28;98386;-77
2022/10/01 17:35:54;;;;;;;5.47;3.30;;;;;;;14.34;61.64;99400.84;5010303;28;96797;-78
2022/10/01 17:38:21;;;;;;;7.13;2.83;;;;;;;14.48;61.44;99415.78;4994376;28;97176;-76
2022/10/01 17:40:47;;;;;;;4.78;2.83;;;;;;;14.38;61.79;99412.91;4979829;28;100569;-75
2022/10/01 17:43:15;;;;;;;4.63;3.15;;;;;;;14.48;61.67;99421.91;5003536;28;101118;-79
2022/10/01 17:45:41;;;;;;;5.75;3.20;;;;;;;14.44;61.66;99420.41;4983750;28;96797;-83
2022/10/01 17:48:07;;;;;;;4.63;3.05;;;;;;;14.40;62.04;99412.81;4996471;28;96838;-81
2022/10/01 17:50:33;;;;;;;5.22;3.25;;;;;;;14.39;62.21;99422.50;4989433;28;101058;-83
2022/10/01 17:52:59;;;;;;;5.10;3.00;;;;;;;14.32;62.15;99413.28;4986592;28;101320;-78
2022/10/01 17:55:25;;;;;;;5.63;3.45;;;;;;;14.44;62.09;99424.84;4984379;28;96837;-79
2022/10/01 17:57:51;;;;;;;6.80;3.50;;;;;;;14.38;62.39;99430.53;5013452;28;96812;-80
2022/10/01 18:00:17;;;;;;;5.85;3.20;;;;;;;14.45;62.07;99432.66;5000187;28;101213;-80
2022/10/01 18:02:43;;;;;;;5.45;3.45;;;;;;;14.33;62.31;99428.19;5002643;28;97888;-79
2022/10/01 18:05:11;;;;;;;4.75;3.15;;;;;;;14.33;62.19;99436.09;4986561;28;100961;-79
2022/10/01 18:07:37;;;;;;;6.20;3.17;;;;;;;14.39;62.36;99437.50;4965189;28;96900;-82
2022/10/01 18:10:07;;;;;;;4.93;2.90;;;;;;;14.36;62.30;99432.41;4971806;28;101665;-81
2022/10/01 18:12:33;;;;;;;5.20;3.03;;;;;;;14.36;62.21;99429.78;4958958;28;101339;-88
2022/10/01 18:14:59;;;;;;;4.18;3.30;;;;;;;14.39;62.19;99434.88;4977294;28;96910;-83
2022/10/01 18:17:24;;;;;;;4.75;3.47;;;;;;;14.47;61.88;99435.22;4986012;28;96981;-82
2022/10/01 18:19:50;;;;;;;5.82;3.30;;;;;;;14.39;61.87;99440.13;4969471;28;101423;-81
2022/10/01 18:22:15;;;;;;;5.20;4.03;;;;;;;14.43;62.00;99444.31;4964280;28;101155;-80
2022/10/01 18:24:41;;;;;;;6.07;4.18;;;;;;;14.47;61.70;99449.28;4958918;28;96809;-80
2022/10/01 18:27:06;;;;;;;5.43;3.78;;;;;;;14.48;61.52;99450.09;4970216;28;97597;-80
2022/10/01 18:29:32;;;;;;;5.45;3.55;;;;;;;14.40;61.95;99461.19;4961463;28;100203;-82
2022/10/01 18:32:06;;;;;;;4.05;3.00;;;;;;;14.43;61.98;99458.34;4973440;28;102238;-82
2022/10/01 18:34:46;;;;;;;3.90;2.70;;;;;;;14.48;61.91;99464.16;4985490;28;98064;-86
2022/10/01 18:37:23;;;;;;;3.75;2.80;;;;;;;14.44;62.25;99443.34;4967199;28;98149;-81
2022/10/01 18:40:15;;;;;;;4.03;3.03;;;;;;;14.41;62.74;99454.09;4980261;28;101039;-80
2022/10/01 18:42:52;;;;;;;4.82;3.20;;;;;;;14.40;63.07;99453.25;4987502;28;98099;-80
2022/10/01 18:45:50;;;;;;;6.35;3.38;;;;;;;14.26;62.86;99432.16;4987240;28;96861;-80
2022/10/01 18:48:31;;;;;;;4.45;3.17;;;;;;;14.39;63.15;99448.91;4971445;28;97265;-79
2022/10/01 18:51:35;;;;;;;3.67;2.75;;;;;;;14.38;62.98;99452.50;4971436;28;101501;-81
2022/10/01 18:54:32;;;;;;;4.57;2.95;;;;;;;14.37;63.24;99449.94;4963548;28;101132;-86
2022/10/01 18:57:19;;;;;;;8.70;3.88;;;;;;;14.28;64.26;99446.09;4966537;28;98058;-80
2022/10/01 19:00:07;;;;;;;9.65;3.30;;;;;;;14.18;65.41;99448.47;4974831;28;97002;-80
2022/10/01 19:02:58;;;;;;;6.88;3.70;;;;;;;14.23;64.87;99451.69;4977896;28;100458;-85
2022/10/01 19:05:29;;;;;;;5.55;3.30;;;;;;;14.24;65.05;99445.44;4998720;28;98358;-80
2022/10/01 19:08:07;;;;;;;4.07;2.88;;;;;;;14.24;65.41;99445.44;4998815;28;96891;-79
2022/10/01 19:10:43;;;;;;;5.22;3.08;;;;;;;14.22;65.67;99443.84;4997675;28;96913;-84
2022/10/01 19:13:20;;;;;;;3.53;2.65;;;;;;;14.18;65.17;99451.13;5007904;28;97777;-80
2022/10/01 19:16:17;;;;;;;5.35;3.30;;;;;;;14.23;65.88;99446.41;5002731;28;97870;-79
2022/10/01 19:19:12;;;;;;;4.32;2.80;;;;;;;14.17;65.77;99452.06;4994807;28;96775;-83
2022/10/01 19:21:57;;;;;;;5.22;3.10;;;;;;;14.18;65.99;99456.38;4987740;28;97035;-80
2022/10/01 19:24:50;;;;;;;5.35;3.30;;;;;;;14.09;65.55;99437.66;4997358;28;101438;-79
2022/10/01 19:27:32;;;;;;;6.25;2.78;;;;;;;14.23;66.03;99450.84;5025447;27;98388;-80
2022/10/01 19:30:08;;;;;;;5.63;3.33;;;;;;;14.18;65.95;99451.13;5004688;28;96709;-80
2022/10/01 19:32:41;;;;;;;5.05;3.00;;;;;;;14.19;66.05;99455.44;4980619;28;97415;-84
2022/10/01 19:35:18;;;;;;;5.07;3.10;;;;;;;14.04;66.67;99441.41;4991303;28;101261;-81
2022/10/01 19:38:04;;;;;;;4.78;2.90;;;;;;;14.15;66.42;99461.88;4982903;28;98511;-80
2022/10/01 19:41:02;;;;;;;5.75;3.05;;;;;;;14.14;66.50;99467.25;4995101;28;97234;-80
2022/10/01 19:43:49;;;;;;;6.40;2.70;;;;;;;14.11;66.25;99463.00;4985370;28;97244;-81
2022/10/01 19:46:23;;;;;;;4.10;2.65;;;;;;;14.06;66.58;99461.59;4987764;28;101818;-80
2022/10/01 19:48:51;;;;;;;5.00;3.10;;;;;;;14.13;66.73;99468.19;5004913;28;97995;-80
2022/10/01 19:51:20;;;;;;;5.28;3.28;;;;;;;14.04;66.59;99465.16;4996849;27;96866;-81
2022/10/01 19:53:50;;;;;;;3.80;2.88;;;;;;;14.06;66.99;99474.78;4994471;28;97152;-81
2022/10/01 19:56:21;;;;;;;4.68;3.17;;;;;;;13.93;66.63;99458.84;4999191;28;97491;-80
2022/10/01 19:58:46;;;;;;;3.83;2.97;;;;;;;14.04;66.90;99474.88;4978149;28;101684;-80
2022/10/01 20:01:19;;;;;;;4.80;2.80;;;;;;;13.95;66.73;99462.25;4984012;28;97175;-79
2022/10/01 20:04:00;;;;;;;4.65;3.15;;;;;;;14.06;66.61;99474.78;4987503;28;97247;-81
2022/10/01 20:06:30;;;;;;;4.97;3.00;;;;;;;13.95;67.11;99464.88;5000967;28;98661;-80
2022/10/01 20:09:19;;;;;;;4.25;3.25;;;;;;;13.94;66.90;99476.41;4994030;28;98813;-81
2022/10/01 20:11:47;;;;;;;5.70;3.30;;;;;;;13.96;67.28;99472.72;5003607;28;97070;-81
2022/10/01 20:17:24;;;;;;;5.63;3.03;;;;;;;14.02;67.37;99474.97;5008927;28;97999;-82
2022/10/01 20:20:09;;;;;;;4.32;2.95;;;;;;;14.06;66.99;99472.16;4999196;28;97360;-82
2022/10/01 20:22:48;;;;;;;6.68;3.20;;;;;;;14.00;67.12;99476.00;5014300;28;96621;-86
2022/10/01 20:25:28;;;;;;;6.07;3.42;;;;;;;13.96;67.56;99477.13;4986260;28;96854;-82
2022/10/01 20:28:18;;;;;;;6.28;3.50;;;;;;;14.00;67.20;99482.13;5030444;27;100981;-82
2022/10/01 20:30:56;;;;;;;4.88;2.85;;;;;;;13.93;67.16;99472.03;5022201;27;101681;-81
2022/10/01 20:33:55;;;;;;;6.70;3.60;;;;;;;14.00;66.95;99476.00;5027511;28;96555;-81
2022/10/01 20:36:23;;;;;;;6.22;3.63;;;;;;;13.98;66.97;99484.00;4967575;28;97321;-81
2022/10/01 20:39:02;;;;;;;6.03;3.20;;;;;;;13.97;67.32;99479.69;4981971;28;101401;-82
2022/10/01 20:41:29;;;;;;;5.38;3.65;;;;;;;14.06;67.01;99482.72;4988149;28;101195;-81
2022/10/01 20:43:56;;;;;;;4.88;3.35;;;;;;;14.02;66.85;99482.91;4985928;28;96646;-81
2022/10/01 20:46:26;;;;;;;4.28;3.00;;;;;;;13.89;66.77;99467.91;4982528;28;96818;-82
2022/10/01 20:48:57;;;;;;;5.32;3.05;;;;;;;13.88;67.23;99472.34;5002921;28;100999;-82
2022/10/01 20:51:31;;;;;;;5.15;2.72;;;;;;;13.95;66.91;99478.91;5002155;28;101768;-81
2022/10/01 20:54:23;;;;;;;4.88;2.97;;;;;;;14.05;66.48;99497.69;4985872;28;96662;-82
2022/10/01 20:56:58;;;;;;;5.55;3.13;;;;;;;14.04;66.59;99503.91;4982527;28;96777;-82
2022/10/01 20:59:33;;;;;;;4.90;3.10;;;;;;;13.98;66.36;99493.72;4998515;28;100869;-81
2022/10/01 21:02:38;;;;;;;3.97;2.78;;;;;;;13.97;66.91;99494.69;4965620;28;101299;-81
2022/10/01 21:05:10;;;;;;;4.45;2.88;;;;;;;13.92;66.31;99502.00;5001319;28;96719;-81
2022/10/01 21:08:17;;;;;;;4.50;2.70;;;;;;;13.92;66.75;99502.00;4982350;28;96848;-82
2022/10/01 21:10:52;;;;;;;4.18;2.83;;;;;;;13.84;66.96;99504.25;4981723;28;101854;-82
2022/10/01 21:13:30;;;;;;;3.65;2.55;;;;;;;13.84;66.86;99505.09;4965297;28;101243;-81
2022/10/01 21:16:07;;;;;;;5.05;3.03;;;;;;;13.81;66.93;99510.56;4984280;28;96657;-82
2022/10/01 21:19:05;;;;;;;5.35;3.03;;;;;;;13.77;66.73;99506.44;5019026;28;96747;-81
2022/10/01 21:21:40;;;;;;;4.15;3.30;;;;;;;13.75;66.87;99509.13;5018364;28;101584;-81
2022/10/01 21:24:11;;;;;;;4.50;2.60;;;;;;;13.72;67.48;99517.25;5004181;28;101441;-81
2022/10/01 21:26:50;;;;;;;;;;;;;;;13.72;66.85;99517.25;4998305;28;96720;-82
2022/10/01 21:29:23;;;;;;;4.88;2.75;;;;;;;13.71;67.23;99527.91;4983500;28;96843;-81
2022/10/01 21:32:07;;;;;;;3.88;2.88;;;;;;;13.76;67.77;99528.47;4985123;28;101427;-81
2022/10/01 21:35:17;;;;;;;5.05;2.80;;;;;;;13.83;67.51;99527.16;4981828;28;101513;-82